Huntington, UT

1:06 PM MDT on October 25, 2014 (GMT -0600)
Provo Municipal | Change Station
CLOSE
Current Station
Airport
Location: Provo,
Elevation: 4495 ft
Nearby Weather Stations

Elev 4495 ft 40.22 °N, 111.72 °W | Updated 16 minutes ago

Clear
Clear
72 °F
Feels Like 72 °F
N
4
Wind Variable Wind from South

Today
High -- | Low -- °F
--% Chance of Precip.
Yesterday
High -- | Low -- °F
Precip. -- in
7:44 AM 6:31 PM
Waxing Crescent, 4% visible
Pressure 30.09 in
Visibility 15.0 miles
Clouds Scattered Clouds 12000 ft
Dew Point 36 °F
Humidity 27%
Rainfall 0.00 in
Snow Depth Not available.
UV 4 out of 12
Pollen 1.80 out of 12
Air Quality Not available.
Flu Activity Sporadic
METAR KPVU 251850Z 18003KT 15SM SCT120 22/02 A3009

More Conditions Fewer Conditions

Pressure 30.09 in
Visibility 15.0 miles
Clouds Scattered Clouds 12000 ft
Dew Point 36 °F
Humidity 27%
Rainfall 0.00 in
Snow Depth Not available.
UV 4 out of 12
Pollen 1.80 out of 12
Air Quality Not available.
Flu Activity Sporadic
METAR KPVU 251850Z 18003KT 15SM SCT120 22/02 A3009

More Conditions Fewer Conditions

10-Day Weather Forecast

Almanac

Astronomy

Oct. 25, 2014 Rise Set
Actual Time 7:44 AM MDT 6:31 PM MDT
Civil Twilight 7:16 AM MDT 6:58 PM MDT
Nautical Twilight 6:45 AM MDT 7:29 PM MDT
Astronomical Twilight 6:14 AM MDT 8:00 PM MDT
Moon 9:26 AM MDT 7:57 PM MDT
Length of Visible Light 11h 41m
Length of Day
10h 46m
Tomorrow will be 2m 21s shorter.
Waxing Crescent, 4% of the Moon is Illuminated
Today
Waxing Crescent
Oct 30
First Quarter
Nov 6
Full
Nov 14
Last Quarter
Nov 22
New

Today's Extremes

State Highs State Lows

Community

WunderPhotos

Upload Photos

1,764,958 photos uploaded!

Nearby

Snow Depth

Station Depth Elevation
Clear Creek #2 0 in 8300 ft
Gooseberry R.S. 0 in 7920 ft
Strawberry Divide 0 in 8400 ft
Daniels-Strawberry 0 in 8000 ft
Cascade Mountain 0 in 7768 ft

Earthquake Activity

City Distance Mag. Time & Date
No recent earthquake activity has been reported nearby.
Minimum magnitude displayed is 2.5.

Coastal Water Temperatures

Place Temperature
No Stations Reporting

Nearby Weather Stations